sensor_id;sensor_type;location;lat;lon;timestamp;P1;durP1;ratioP1;P2;durP2;ratioP2
33190;SDS011;19554;42.652;23.364;2023-03-19T00:00:05;31.00;;;15.88;;
33190;SDS011;19554;42.652;23.364;2023-03-19T00:02:32;30.48;;;15.65;;
33190;SDS011;19554;42.652;23.364;2023-03-19T00:04:58;33.70;;;18.17;;
33190;SDS011;19554;42.652;23.364;2023-03-19T00:07:23;32.65;;;18.33;;
33190;SDS011;19554;42.652;23.364;2023-03-19T00:09:49;33.70;;;19.52;;
33190;SDS011;19554;42.652;23.364;2023-03-19T00:12:14;26.35;;;15.02;;
33190;SDS011;19554;42.652;23.364;2023-03-19T00:14:40;26.88;;;15.80;;
33190;SDS011;19554;42.652;23.364;2023-03-19T00:17:06;24.98;;;14.15;;
33190;SDS011;19554;42.652;23.364;2023-03-19T00:19:31;16.75;;;10.63;;
33190;SDS011;19554;42.652;23.364;2023-03-19T00:21:57;15.32;;;9.85;;
33190;SDS011;19554;42.652;23.364;2023-03-19T00:24:23;19.08;;;10.23;;
33190;SDS011;19554;42.652;23.364;2023-03-19T00:26:48;20.83;;;12.00;;
33190;SDS011;19554;42.652;23.364;2023-03-19T00:29:14;27.45;;;14.95;;
33190;SDS011;19554;42.652;23.364;2023-03-19T00:31:40;27.73;;;16.10;;
33190;SDS011;19554;42.652;23.364;2023-03-19T00:34:05;30.58;;;16.48;;
33190;SDS011;19554;42.652;23.364;2023-03-19T00:36:32;30.90;;;16.42;;
33190;SDS011;19554;42.652;23.364;2023-03-19T00:38:57;28.08;;;16.08;;
33190;SDS011;19554;42.652;23.364;2023-03-19T00:41:23;28.23;;;16.85;;
33190;SDS011;19554;42.652;23.364;2023-03-19T00:43:52;25.38;;;15.65;;
33190;SDS011;19554;42.652;23.364;2023-03-19T00:46:19;45.17;;;17.92;;
33190;SDS011;19554;42.652;23.364;2023-03-19T00:48:45;23.33;;;15.05;;
33190;SDS011;19554;42.652;23.364;2023-03-19T00:51:11;27.83;;;15.60;;
33190;SDS011;19554;42.652;23.364;2023-03-19T00:53:37;25.00;;;15.23;;
33190;SDS011;19554;42.652;23.364;2023-03-19T00:56:04;32.10;;;15.70;;
33190;SDS011;19554;42.652;23.364;2023-03-19T00:58:31;27.90;;;14.55;;
33190;SDS011;19554;42.652;23.364;2023-03-19T01:00:57;29.23;;;14.93;;
33190;SDS011;19554;42.652;23.364;2023-03-19T01:03:22;20.23;;;12.93;;
33190;SDS011;19554;42.652;23.364;2023-03-19T01:05:47;22.58;;;12.30;;
33190;SDS011;19554;42.652;23.364;2023-03-19T01:08:14;16.50;;;10.77;;
33190;SDS011;19554;42.652;23.364;2023-03-19T01:10:43;20.50;;;11.00;;
33190;SDS011;19554;42.652;23.364;2023-03-19T01:13:10;22.08;;;11.73;;
33190;SDS011;19554;42.652;23.364;2023-03-19T01:15:36;29.13;;;14.85;;
33190;SDS011;19554;42.652;23.364;2023-03-19T01:18:02;28.67;;;16.83;;
33190;SDS011;19554;42.652;23.364;2023-03-19T01:20:27;29.17;;;15.10;;
33190;SDS011;19554;42.652;23.364;2023-03-19T01:22:53;24.30;;;13.30;;
33190;SDS011;19554;42.652;23.364;2023-03-19T01:25:18;24.70;;;12.40;;
33190;SDS011;19554;42.652;23.364;2023-03-19T01:27:43;22.38;;;12.60;;
33190;SDS011;19554;42.652;23.364;2023-03-19T01:30:09;20.73;;;12.55;;
33190;SDS011;19554;42.652;23.364;2023-03-19T01:32:35;22.10;;;12.65;;
33190;SDS011;19554;42.652;23.364;2023-03-19T01:35:00;24.73;;;13.32;;
33190;SDS011;19554;42.652;23.364;2023-03-19T01:37:26;21.70;;;12.05;;
33190;SDS011;19554;42.652;23.364;2023-03-19T01:39:52;18.75;;;11.00;;
33190;SDS011;19554;42.652;23.364;2023-03-19T01:42:17;26.40;;;13.90;;
33190;SDS011;19554;42.652;23.364;2023-03-19T01:44:43;30.52;;;14.38;;
33190;SDS011;19554;42.652;23.364;2023-03-19T01:47:16;24.92;;;13.73;;
33190;SDS011;19554;42.652;23.364;2023-03-19T01:49:51;22.50;;;12.52;;
33190;SDS011;19554;42.652;23.364;2023-03-19T01:52:18;24.58;;;13.13;;
33190;SDS011;19554;42.652;23.364;2023-03-19T01:54:45;20.05;;;11.68;;
33190;SDS011;19554;42.652;23.364;2023-03-19T01:57:12;27.45;;;12.88;;
33190;SDS011;19554;42.652;23.364;2023-03-19T01:59:43;21.73;;;12.38;;
33190;SDS011;19554;42.652;23.364;2023-03-19T02:04:59;19.85;;;11.18;;
33190;SDS011;19554;42.652;23.364;2023-03-19T02:07:30;22.33;;;11.18;;
33190;SDS011;19554;42.652;23.364;2023-03-19T02:09:58;20.55;;;11.65;;
33190;SDS011;19554;42.652;23.364;2023-03-19T02:12:25;21.83;;;11.57;;
33190;SDS011;19554;42.652;23.364;2023-03-19T02:14:51;22.30;;;11.50;;
33190;SDS011;19554;42.652;23.364;2023-03-19T02:17:17;23.92;;;12.50;;
33190;SDS011;19554;42.652;23.364;2023-03-19T02:22:26;23.33;;;11.52;;
33190;SDS011;19554;42.652;23.364;2023-03-19T02:27:29;23.25;;;13.63;;
33190;SDS011;19554;42.652;23.364;2023-03-19T02:29:55;29.35;;;13.32;;
33190;SDS011;19554;42.652;23.364;2023-03-19T02:32:20;19.35;;;11.88;;
33190;SDS011;19554;42.652;23.364;2023-03-19T02:34:46;22.45;;;11.90;;
33190;SDS011;19554;42.652;23.364;2023-03-19T02:39:47;22.58;;;12.60;;
33190;SDS011;19554;42.652;23.364;2023-03-19T02:42:13;21.83;;;11.75;;
33190;SDS011;19554;42.652;23.364;2023-03-19T02:44:41;22.75;;;10.10;;
33190;SDS011;19554;42.652;23.364;2023-03-19T02:47:06;21.98;;;9.27;;
33190;SDS011;19554;42.652;23.364;2023-03-19T02:49:32;22.20;;;10.30;;
33190;SDS011;19554;42.652;23.364;2023-03-19T02:51:57;21.83;;;9.73;;
33190;SDS011;19554;42.652;23.364;2023-03-19T02:54:22;21.08;;;10.95;;
33190;SDS011;19554;42.652;23.364;2023-03-19T02:56:48;30.23;;;11.93;;
33190;SDS011;19554;42.652;23.364;2023-03-19T02:59:16;23.10;;;11.70;;
33190;SDS011;19554;42.652;23.364;2023-03-19T03:01:41;23.88;;;11.90;;
33190;SDS011;19554;42.652;23.364;2023-03-19T03:04:07;23.38;;;11.43;;
33190;SDS011;19554;42.652;23.364;2023-03-19T03:06:32;20.13;;;12.27;;
33190;SDS011;19554;42.652;23.364;2023-03-19T03:08:58;23.25;;;10.98;;
33190;SDS011;19554;42.652;23.364;2023-03-19T03:11:23;24.77;;;11.50;;
33190;SDS011;19554;42.652;23.364;2023-03-19T03:13:49;26.13;;;12.38;;
33190;SDS011;19554;42.652;23.364;2023-03-19T03:16:14;25.90;;;13.65;;
33190;SDS011;19554;42.652;23.364;2023-03-19T03:18:39;26.15;;;13.30;;
33190;SDS011;19554;42.652;23.364;2023-03-19T03:21:06;26.88;;;13.65;;
33190;SDS011;19554;42.652;23.364;2023-03-19T03:23:32;26.98;;;14.20;;
33190;SDS011;19554;42.652;23.364;2023-03-19T03:25:57;25.98;;;13.20;;
33190;SDS011;19554;42.652;23.364;2023-03-19T03:28:23;25.98;;;13.45;;
33190;SDS011;19554;42.652;23.364;2023-03-19T03:30:48;27.38;;;14.50;;
33190;SDS011;19554;42.652;23.364;2023-03-19T03:33:14;27.85;;;14.73;;
33190;SDS011;19554;42.652;23.364;2023-03-19T03:35:40;33.65;;;15.43;;
33190;SDS011;19554;42.652;23.364;2023-03-19T03:38:06;29.70;;;15.73;;
33190;SDS011;19554;42.652;23.364;2023-03-19T03:40:31;34.42;;;17.15;;
33190;SDS011;19554;42.652;23.364;2023-03-19T03:42:58;44.55;;;19.60;;
33190;SDS011;19554;42.652;23.364;2023-03-19T03:45:23;41.55;;;19.25;;
33190;SDS011;19554;42.652;23.364;2023-03-19T03:47:49;28.58;;;15.48;;
33190;SDS011;19554;42.652;23.364;2023-03-19T03:50:15;22.17;;;12.40;;
33190;SDS011;19554;42.652;23.364;2023-03-19T03:52:41;25.17;;;13.23;;
33190;SDS011;19554;42.652;23.364;2023-03-19T03:55:06;29.23;;;14.13;;
33190;SDS011;19554;42.652;23.364;2023-03-19T03:57:32;34.60;;;17.40;;
33190;SDS011;19554;42.652;23.364;2023-03-19T03:59:58;35.30;;;20.75;;
33190;SDS011;19554;42.652;23.364;2023-03-19T04:02:24;44.08;;;22.05;;
33190;SDS011;19554;42.652;23.364;2023-03-19T04:04:50;36.70;;;18.90;;
33190;SDS011;19554;42.652;23.364;2023-03-19T04:07:15;24.25;;;14.57;;
33190;SDS011;19554;42.652;23.364;2023-03-19T04:09:41;33.03;;;14.38;;
33190;SDS011;19554;42.652;23.364;2023-03-19T04:12:06;24.83;;;13.35;;
33190;SDS011;19554;42.652;23.364;2023-03-19T04:14:32;22.73;;;12.15;;
33190;SDS011;19554;42.652;23.364;2023-03-19T04:16:57;27.83;;;14.07;;
33190;SDS011;19554;42.652;23.364;2023-03-19T04:19:23;25.88;;;13.70;;
33190;SDS011;19554;42.652;23.364;2023-03-19T04:21:48;25.23;;;13.75;;
33190;SDS011;19554;42.652;23.364;2023-03-19T04:24:13;24.73;;;13.45;;
33190;SDS011;19554;42.652;23.364;2023-03-19T04:26:39;24.98;;;14.07;;
33190;SDS011;19554;42.652;23.364;2023-03-19T04:29:05;32.97;;;13.98;;
33190;SDS011;19554;42.652;23.364;2023-03-19T04:31:32;24.75;;;13.98;;
33190;SDS011;19554;42.652;23.364;2023-03-19T04:33:58;33.30;;;18.55;;
33190;SDS011;19554;42.652;23.364;2023-03-19T04:36:24;30.73;;;18.27;;
33190;SDS011;19554;42.652;23.364;2023-03-19T04:38:50;27.08;;;14.25;;
33190;SDS011;19554;42.652;23.364;2023-03-19T04:41:15;26.30;;;13.00;;
33190;SDS011;19554;42.652;23.364;2023-03-19T04:43:40;25.00;;;14.77;;
33190;SDS011;19554;42.652;23.364;2023-03-19T04:46:06;28.23;;;14.18;;
33190;SDS011;19554;42.652;23.364;2023-03-19T04:48:32;31.02;;;14.73;;
33190;SDS011;19554;42.652;23.364;2023-03-19T04:51:00;31.42;;;17.02;;
33190;SDS011;19554;42.652;23.364;2023-03-19T04:53:27;26.05;;;14.95;;
33190;SDS011;19554;42.652;23.364;2023-03-19T04:55:52;30.60;;;15.82;;
33190;SDS011;19554;42.652;23.364;2023-03-19T04:58:18;27.92;;;14.88;;
33190;SDS011;19554;42.652;23.364;2023-03-19T05:00:44;24.92;;;13.13;;
33190;SDS011;19554;42.652;23.364;2023-03-19T05:03:11;30.27;;;13.40;;
33190;SDS011;19554;42.652;23.364;2023-03-19T05:05:37;31.23;;;13.95;;
33190;SDS011;19554;42.652;23.364;2023-03-19T05:08:04;32.63;;;14.13;;
33190;SDS011;19554;42.652;23.364;2023-03-19T05:10:30;25.13;;;14.15;;
33190;SDS011;19554;42.652;23.364;2023-03-19T05:12:56;33.00;;;14.65;;
33190;SDS011;19554;42.652;23.364;2023-03-19T05:15:22;22.92;;;12.88;;
33190;SDS011;19554;42.652;23.364;2023-03-19T05:17:47;16.75;;;9.15;;
33190;SDS011;19554;42.652;23.364;2023-03-19T05:20:12;19.17;;;10.93;;
33190;SDS011;19554;42.652;23.364;2023-03-19T05:22:38;21.50;;;12.75;;
33190;SDS011;19554;42.652;23.364;2023-03-19T05:25:03;29.25;;;15.73;;
33190;SDS011;19554;42.652;23.364;2023-03-19T05:27:29;21.38;;;10.38;;
33190;SDS011;19554;42.652;23.364;2023-03-19T05:29:54;21.88;;;8.38;;
33190;SDS011;19554;42.652;23.364;2023-03-19T05:32:20;14.82;;;8.00;;
33190;SDS011;19554;42.652;23.364;2023-03-19T05:34:46;11.15;;;7.93;;
33190;SDS011;19554;42.652;23.364;2023-03-19T05:37:11;15.10;;;8.48;;
33190;SDS011;19554;42.652;23.364;2023-03-19T05:39:37;10.88;;;7.47;;
33190;SDS011;19554;42.652;23.364;2023-03-19T05:42:03;16.30;;;8.27;;
33190;SDS011;19554;42.652;23.364;2023-03-19T05:44:28;14.65;;;9.15;;
33190;SDS011;19554;42.652;23.364;2023-03-19T05:46:54;16.05;;;9.25;;
33190;SDS011;19554;42.652;23.364;2023-03-19T05:49:19;15.63;;;9.15;;
33190;SDS011;19554;42.652;23.364;2023-03-19T05:51:46;17.60;;;10.63;;
33190;SDS011;19554;42.652;23.364;2023-03-19T05:54:11;17.20;;;10.55;;
33190;SDS011;19554;42.652;23.364;2023-03-19T05:56:36;23.45;;;11.45;;
33190;SDS011;19554;42.652;23.364;2023-03-19T05:59:02;18.88;;;11.48;;
33190;SDS011;19554;42.652;23.364;2023-03-19T06:01:27;19.63;;;10.80;;
33190;SDS011;19554;42.652;23.364;2023-03-19T06:03:53;20.75;;;10.35;;
33190;SDS011;19554;42.652;23.364;2023-03-19T06:06:18;18.02;;;10.13;;
33190;SDS011;19554;42.652;23.364;2023-03-19T06:08:43;19.10;;;10.10;;
33190;SDS011;19554;42.652;23.364;2023-03-19T06:11:09;18.45;;;10.23;;
33190;SDS011;19554;42.652;23.364;2023-03-19T06:13:34;16.02;;;10.02;;
33190;SDS011;19554;42.652;23.364;2023-03-19T06:16:00;16.30;;;9.35;;
33190;SDS011;19554;42.652;23.364;2023-03-19T06:18:26;18.17;;;10.07;;
33190;SDS011;19554;42.652;23.364;2023-03-19T06:20:51;19.92;;;9.80;;
33190;SDS011;19554;42.652;23.364;2023-03-19T06:23:17;20.38;;;11.65;;
33190;SDS011;19554;42.652;23.364;2023-03-19T06:25:43;19.13;;;10.60;;
33190;SDS011;19554;42.652;23.364;2023-03-19T06:28:08;17.92;;;11.15;;
33190;SDS011;19554;42.652;23.364;2023-03-19T06:30:34;24.13;;;12.18;;
33190;SDS011;19554;42.652;23.364;2023-03-19T06:33:00;17.42;;;11.52;;
33190;SDS011;19554;42.652;23.364;2023-03-19T06:35:25;23.25;;;11.18;;
33190;SDS011;19554;42.652;23.364;2023-03-19T06:37:51;17.63;;;10.38;;
33190;SDS011;19554;42.652;23.364;2023-03-19T06:40:16;18.70;;;11.00;;
33190;SDS011;19554;42.652;23.364;2023-03-19T06:42:45;20.92;;;10.82;;
33190;SDS011;19554;42.652;23.364;2023-03-19T06:45:11;19.63;;;10.20;;
33190;SDS011;19554;42.652;23.364;2023-03-19T06:47:40;16.83;;;10.68;;
33190;SDS011;19554;42.652;23.364;2023-03-19T06:50:08;21.67;;;11.20;;
33190;SDS011;19554;42.652;23.364;2023-03-19T06:52:34;18.60;;;9.98;;
33190;SDS011;19554;42.652;23.364;2023-03-19T06:55:00;16.13;;;10.73;;
33190;SDS011;19554;42.652;23.364;2023-03-19T06:57:25;23.13;;;10.73;;
33190;SDS011;19554;42.652;23.364;2023-03-19T06:59:51;17.45;;;10.20;;
33190;SDS011;19554;42.652;23.364;2023-03-19T07:02:17;21.77;;;10.68;;
33190;SDS011;19554;42.652;23.364;2023-03-19T07:04:42;18.60;;;9.95;;
33190;SDS011;19554;42.652;23.364;2023-03-19T07:07:08;16.02;;;10.27;;
33190;SDS011;19554;42.652;23.364;2023-03-19T07:09:33;15.65;;;9.90;;
33190;SDS011;19554;42.652;23.364;2023-03-19T07:11:58;18.13;;;9.48;;
33190;SDS011;19554;42.652;23.364;2023-03-19T07:14:24;17.10;;;9.15;;
33190;SDS011;19554;42.652;23.364;2023-03-19T07:16:50;18.27;;;10.15;;
33190;SDS011;19554;42.652;23.364;2023-03-19T07:19:15;15.88;;;9.75;;
33190;SDS011;19554;42.652;23.364;2023-03-19T07:21:40;17.15;;;9.95;;
33190;SDS011;19554;42.652;23.364;2023-03-19T07:24:06;21.65;;;10.68;;
33190;SDS011;19554;42.652;23.364;2023-03-19T07:26:32;14.93;;;9.57;;
33190;SDS011;19554;42.652;23.364;2023-03-19T07:28:57;17.52;;;10.25;;
33190;SDS011;19554;42.652;23.364;2023-03-19T07:31:23;18.08;;;10.15;;
33190;SDS011;19554;42.652;23.364;2023-03-19T07:33:48;19.02;;;10.40;;
33190;SDS011;19554;42.652;23.364;2023-03-19T07:36:13;16.63;;;9.85;;
33190;SDS011;19554;42.652;23.364;2023-03-19T07:38:39;14.30;;;9.88;;
33190;SDS011;19554;42.652;23.364;2023-03-19T07:41:05;17.88;;;9.32;;
33190;SDS011;19554;42.652;23.364;2023-03-19T07:43:30;15.73;;;9.98;;
33190;SDS011;19554;42.652;23.364;2023-03-19T07:45:56;14.98;;;9.80;;
33190;SDS011;19554;42.652;23.364;2023-03-19T07:48:21;19.10;;;10.63;;
33190;SDS011;19554;42.652;23.364;2023-03-19T07:50:48;24.02;;;11.98;;
33190;SDS011;19554;42.652;23.364;2023-03-19T07:53:15;18.92;;;11.60;;
33190;SDS011;19554;42.652;23.364;2023-03-19T07:55:40;21.63;;;12.00;;
33190;SDS011;19554;42.652;23.364;2023-03-19T07:58:06;15.35;;;10.50;;
33190;SDS011;19554;42.652;23.364;2023-03-19T08:00:31;19.38;;;9.98;;
33190;SDS011;19554;42.652;23.364;2023-03-19T08:02:56;18.52;;;9.70;;
33190;SDS011;19554;42.652;23.364;2023-03-19T08:05:22;21.00;;;11.10;;
33190;SDS011;19554;42.652;23.364;2023-03-19T08:07:47;16.52;;;9.98;;
33190;SDS011;19554;42.652;23.364;2023-03-19T08:10:14;20.13;;;11.20;;
33190;SDS011;19554;42.652;23.364;2023-03-19T08:12:40;19.05;;;11.70;;
33190;SDS011;19554;42.652;23.364;2023-03-19T08:15:06;17.17;;;10.52;;
33190;SDS011;19554;42.652;23.364;2023-03-19T08:17:32;20.77;;;10.43;;
33190;SDS011;19554;42.652;23.364;2023-03-19T08:20:09;20.00;;;11.05;;
33190;SDS011;19554;42.652;23.364;2023-03-19T08:22:36;20.63;;;9.70;;
33190;SDS011;19554;42.652;23.364;2023-03-19T08:25:03;17.38;;;9.98;;
33190;SDS011;19554;42.652;23.364;2023-03-19T08:27:29;19.38;;;10.60;;
33190;SDS011;19554;42.652;23.364;2023-03-19T08:29:55;18.33;;;10.10;;
33190;SDS011;19554;42.652;23.364;2023-03-19T08:32:22;14.25;;;9.77;;
33190;SDS011;19554;42.652;23.364;2023-03-19T08:34:48;16.13;;;9.27;;
33190;SDS011;19554;42.652;23.364;2023-03-19T08:37:14;18.60;;;10.43;;
33190;SDS011;19554;42.652;23.364;2023-03-19T08:39:39;15.13;;;8.60;;
33190;SDS011;19554;42.652;23.364;2023-03-19T08:42:05;15.25;;;9.15;;
33190;SDS011;19554;42.652;23.364;2023-03-19T08:44:30;18.17;;;9.55;;
33190;SDS011;19554;42.652;23.364;2023-03-19T08:46:55;15.45;;;9.32;;
33190;SDS011;19554;42.652;23.364;2023-03-19T08:49:21;14.57;;;9.40;;
33190;SDS011;19554;42.652;23.364;2023-03-19T08:51:46;14.85;;;8.57;;
33190;SDS011;19554;42.652;23.364;2023-03-19T08:54:12;14.65;;;8.55;;
33190;SDS011;19554;42.652;23.364;2023-03-19T08:56:38;13.18;;;8.60;;
33190;SDS011;19554;42.652;23.364;2023-03-19T08:59:04;14.52;;;9.05;;
33190;SDS011;19554;42.652;23.364;2023-03-19T09:01:29;13.20;;;9.23;;
33190;SDS011;19554;42.652;23.364;2023-03-19T09:03:54;14.32;;;9.82;;
33190;SDS011;19554;42.652;23.364;2023-03-19T09:06:20;17.52;;;9.63;;
33190;SDS011;19554;42.652;23.364;2023-03-19T09:08:45;16.27;;;9.00;;
33190;SDS011;19554;42.652;23.364;2023-03-19T09:11:11;16.23;;;10.60;;
33190;SDS011;19554;42.652;23.364;2023-03-19T09:13:38;14.45;;;8.70;;
33190;SDS011;19554;42.652;23.364;2023-03-19T09:16:04;13.13;;;8.48;;
33190;SDS011;19554;42.652;23.364;2023-03-19T09:18:30;13.35;;;8.23;;
33190;SDS011;19554;42.652;23.364;2023-03-19T09:20:56;13.88;;;8.85;;
33190;SDS011;19554;42.652;23.364;2023-03-19T09:23:22;12.68;;;7.85;;
33190;SDS011;19554;42.652;23.364;2023-03-19T09:25:48;16.13;;;8.38;;
33190;SDS011;19554;42.652;23.364;2023-03-19T09:28:13;15.70;;;9.20;;
33190;SDS011;19554;42.652;23.364;2023-03-19T09:30:39;13.93;;;9.10;;
33190;SDS011;19554;42.652;23.364;2023-03-19T09:33:05;14.85;;;8.95;;
33190;SDS011;19554;42.652;23.364;2023-03-19T09:35:31;16.15;;;10.05;;
33190;SDS011;19554;42.652;23.364;2023-03-19T09:37:57;15.05;;;9.98;;
33190;SDS011;19554;42.652;23.364;2023-03-19T09:40:25;18.83;;;10.65;;
33190;SDS011;19554;42.652;23.364;2023-03-19T09:45:48;16.60;;;9.73;;
33190;SDS011;19554;42.652;23.364;2023-03-19T09:48:17;16.55;;;9.90;;
33190;SDS011;19554;42.652;23.364;2023-03-19T09:50:52;18.25;;;10.45;;
33190;SDS011;19554;42.652;23.364;2023-03-19T09:53:22;17.20;;;10.55;;
33190;SDS011;19554;42.652;23.364;2023-03-19T09:55:52;14.25;;;9.88;;
33190;SDS011;19554;42.652;23.364;2023-03-19T09:58:19;17.30;;;9.90;;
33190;SDS011;19554;42.652;23.364;2023-03-19T10:00:50;14.75;;;10.10;;
33190;SDS011;19554;42.652;23.364;2023-03-19T10:16:43;12.50;;;8.85;;
33190;SDS011;19554;42.652;23.364;2023-03-19T10:19:12;14.98;;;9.65;;
33190;SDS011;19554;42.652;23.364;2023-03-19T10:21:45;14.00;;;8.60;;
33190;SDS011;19554;42.652;23.364;2023-03-19T10:26:43;14.32;;;9.02;;
33190;SDS011;19554;42.652;23.364;2023-03-19T10:29:19;13.88;;;8.43;;
33190;SDS011;19554;42.652;23.364;2023-03-19T10:37:02;18.35;;;8.43;;
33190;SDS011;19554;42.652;23.364;2023-03-19T10:39:30;16.10;;;9.77;;
33190;SDS011;19554;42.652;23.364;2023-03-19T10:42:09;15.40;;;9.10;;
33190;SDS011;19554;42.652;23.364;2023-03-19T10:44:55;13.45;;;9.23;;
33190;SDS011;19554;42.652;23.364;2023-03-19T10:47:26;13.20;;;8.40;;
33190;SDS011;19554;42.652;23.364;2023-03-19T10:49:52;13.55;;;9.18;;
33190;SDS011;19554;42.652;23.364;2023-03-19T10:52:26;16.17;;;9.70;;
33190;SDS011;19554;42.652;23.364;2023-03-19T10:54:55;15.55;;;9.50;;
33190;SDS011;19554;42.652;23.364;2023-03-19T10:57:28;17.20;;;8.68;;
33190;SDS011;19554;42.652;23.364;2023-03-19T10:59:55;12.10;;;8.05;;
33190;SDS011;19554;42.652;23.364;2023-03-19T11:02:26;16.45;;;8.13;;
33190;SDS011;19554;42.652;23.364;2023-03-19T11:07:36;15.85;;;7.93;;
33190;SDS011;19554;42.652;23.364;2023-03-19T11:10:02;15.15;;;8.68;;
33190;SDS011;19554;42.652;23.364;2023-03-19T11:12:32;17.85;;;9.80;;
33190;SDS011;19554;42.652;23.364;2023-03-19T11:14:59;16.73;;;8.05;;
33190;SDS011;19554;42.652;23.364;2023-03-19T11:17:38;12.13;;;8.32;;
33190;SDS011;19554;42.652;23.364;2023-03-19T11:20:12;11.98;;;7.80;;
33190;SDS011;19554;42.652;23.364;2023-03-19T11:22:48;13.25;;;6.85;;
33190;SDS011;19554;42.652;23.364;2023-03-19T11:25:28;10.85;;;7.28;;
33190;SDS011;19554;42.652;23.364;2023-03-19T11:30:25;11.98;;;8.38;;
33190;SDS011;19554;42.652;23.364;2023-03-19T11:35:43;11.70;;;7.30;;
33190;SDS011;19554;42.652;23.364;2023-03-19T11:38:35;18.20;;;7.18;;
33190;SDS011;19554;42.652;23.364;2023-03-19T11:41:24;15.25;;;8.27;;
33190;SDS011;19554;42.652;23.364;2023-03-19T11:44:05;11.90;;;7.15;;
33190;SDS011;19554;42.652;23.364;2023-03-19T11:52:45;14.57;;;7.63;;
33190;SDS011;19554;42.652;23.364;2023-03-19T11:55:30;15.68;;;7.20;;
33190;SDS011;19554;42.652;23.364;2023-03-19T12:00:46;12.80;;;7.25;;
33190;SDS011;19554;42.652;23.364;2023-03-19T12:05:51;14.40;;;7.68;;
33190;SDS011;19554;42.652;23.364;2023-03-19T12:16:26;17.80;;;7.50;;
33190;SDS011;19554;42.652;23.364;2023-03-19T12:29:56;12.63;;;6.90;;
33190;SDS011;19554;42.652;23.364;2023-03-19T12:32:15;14.73;;;6.22;;
33190;SDS011;19554;42.652;23.364;2023-03-19T12:34:46;9.40;;;5.68;;
33190;SDS011;19554;42.652;23.364;2023-03-19T12:42:49;11.32;;;6.63;;
33190;SDS011;19554;42.652;23.364;2023-03-19T12:45:22;17.90;;;9.68;;
33190;SDS011;19554;42.652;23.364;2023-03-19T12:48:03;12.02;;;6.53;;
33190;SDS011;19554;42.652;23.364;2023-03-19T12:50:47;14.65;;;6.10;;
33190;SDS011;19554;42.652;23.364;2023-03-19T12:53:49;11.20;;;6.10;;
33190;SDS011;19554;42.652;23.364;2023-03-19T12:56:24;13.43;;;6.15;;
33190;SDS011;19554;42.652;23.364;2023-03-19T13:01:48;10.25;;;6.00;;
33190;SDS011;19554;42.652;23.364;2023-03-19T13:09:42;15.40;;;5.95;;
33190;SDS011;19554;42.652;23.364;2023-03-19T13:12:21;10.10;;;5.88;;
33190;SDS011;19554;42.652;23.364;2023-03-19T13:15:01;8.18;;;4.60;;
33190;SDS011;19554;42.652;23.364;2023-03-19T13:20:16;7.15;;;4.60;;
33190;SDS011;19554;42.652;23.364;2023-03-19T13:23:01;11.65;;;5.78;;
33190;SDS011;19554;42.652;23.364;2023-03-19T13:25:39;8.55;;;5.15;;
33190;SDS011;19554;42.652;23.364;2023-03-19T13:28:09;7.78;;;5.15;;
33190;SDS011;19554;42.652;23.364;2023-03-19T13:30:37;8.55;;;5.05;;
33190;SDS011;19554;42.652;23.364;2023-03-19T13:33:04;9.40;;;5.53;;
33190;SDS011;19554;42.652;23.364;2023-03-19T13:35:39;9.00;;;5.28;;
33190;SDS011;19554;42.652;23.364;2023-03-19T13:40:43;8.52;;;5.38;;
33190;SDS011;19554;42.652;23.364;2023-03-19T13:48:37;8.50;;;5.18;;
33190;SDS011;19554;42.652;23.364;2023-03-19T13:54:03;8.38;;;4.72;;
33190;SDS011;19554;42.652;23.364;2023-03-19T14:01:58;8.25;;;5.15;;
33190;SDS011;19554;42.652;23.364;2023-03-19T14:04:28;9.80;;;5.32;;
33190;SDS011;19554;42.652;23.364;2023-03-19T14:07:09;8.30;;;4.32;;
33190;SDS011;19554;42.652;23.364;2023-03-19T14:09:46;7.57;;;4.15;;
33190;SDS011;19554;42.652;23.364;2023-03-19T14:14:43;6.32;;;3.65;;
33190;SDS011;19554;42.652;23.364;2023-03-19T14:17:15;5.57;;;3.70;;
33190;SDS011;19554;42.652;23.364;2023-03-19T14:20:19;4.93;;;3.40;;
33190;SDS011;19554;42.652;23.364;2023-03-19T14:39:37;12.90;;;3.75;;
33190;SDS011;19554;42.652;23.364;2023-03-19T14:42:07;8.32;;;3.67;;
33190;SDS011;19554;42.652;23.364;2023-03-19T14:44:53;5.50;;;3.35;;
33190;SDS011;19554;42.652;23.364;2023-03-19T14:55:42;4.93;;;3.38;;
33190;SDS011;19554;42.652;23.364;2023-03-19T14:58:14;7.75;;;3.20;;
33190;SDS011;19554;42.652;23.364;2023-03-19T15:00:43;4.80;;;3.25;;
33190;SDS011;19554;42.652;23.364;2023-03-19T15:03:22;8.55;;;4.18;;
33190;SDS011;19554;42.652;23.364;2023-03-19T15:08:21;6.57;;;4.03;;
33190;SDS011;19554;42.652;23.364;2023-03-19T15:18:56;7.78;;;3.58;;
33190;SDS011;19554;42.652;23.364;2023-03-19T15:21:22;6.05;;;3.55;;
33190;SDS011;19554;42.652;23.364;2023-03-19T15:23:47;7.00;;;3.50;;
33190;SDS011;19554;42.652;23.364;2023-03-19T15:26:13;5.78;;;3.63;;
33190;SDS011;19554;42.652;23.364;2023-03-19T15:28:49;6.57;;;3.75;;
33190;SDS011;19554;42.652;23.364;2023-03-19T15:31:16;5.22;;;3.33;;
33190;SDS011;19554;42.652;23.364;2023-03-19T15:33:43;6.20;;;3.60;;
33190;SDS011;19554;42.652;23.364;2023-03-19T15:36:26;6.38;;;3.83;;
33190;SDS011;19554;42.652;23.364;2023-03-19T15:41:27;7.00;;;3.40;;
33190;SDS011;19554;42.652;23.364;2023-03-19T15:43:55;6.18;;;3.97;;
33190;SDS011;19554;42.652;23.364;2023-03-19T15:46:22;7.32;;;3.47;;
33190;SDS011;19554;42.652;23.364;2023-03-19T15:49:33;10.15;;;5.55;;
33190;SDS011;19554;42.652;23.364;2023-03-19T15:51:43;9.93;;;5.05;;
33190;SDS011;19554;42.652;23.364;2023-03-19T15:54:15;7.40;;;3.92;;
33190;SDS011;19554;42.652;23.364;2023-03-19T15:56:41;6.82;;;4.05;;
33190;SDS011;19554;42.652;23.364;2023-03-19T15:59:07;10.85;;;5.13;;
33190;SDS011;19554;42.652;23.364;2023-03-19T16:01:34;14.25;;;4.35;;
33190;SDS011;19554;42.652;23.364;2023-03-19T16:04:00;8.85;;;4.40;;
33190;SDS011;19554;42.652;23.364;2023-03-19T16:06:30;8.73;;;3.83;;
33190;SDS011;19554;42.652;23.364;2023-03-19T16:09:13;9.48;;;4.90;;
33190;SDS011;19554;42.652;23.364;2023-03-19T16:11:44;6.05;;;3.90;;
33190;SDS011;19554;42.652;23.364;2023-03-19T16:17:02;6.80;;;4.05;;
33190;SDS011;19554;42.652;23.364;2023-03-19T16:19:37;37.83;;;7.70;;
33190;SDS011;19554;42.652;23.364;2023-03-19T16:22:15;19.40;;;8.82;;
33190;SDS011;19554;42.652;23.364;2023-03-19T16:24:45;19.40;;;10.48;;
33190;SDS011;19554;42.652;23.364;2023-03-19T16:27:19;20.10;;;11.88;;
33190;SDS011;19554;42.652;23.364;2023-03-19T16:29:56;27.08;;;14.40;;
33190;SDS011;19554;42.652;23.364;2023-03-19T16:32:24;36.10;;;15.63;;
33190;SDS011;19554;42.652;23.364;2023-03-19T16:34:54;27.83;;;13.55;;
33190;SDS011;19554;42.652;23.364;2023-03-19T16:47:38;18.55;;;9.75;;
33190;SDS011;19554;42.652;23.364;2023-03-19T16:50:04;20.55;;;8.75;;
33190;SDS011;19554;42.652;23.364;2023-03-19T16:52:30;22.40;;;11.60;;
33190;SDS011;19554;42.652;23.364;2023-03-19T16:54:57;32.10;;;12.73;;
33190;SDS011;19554;42.652;23.364;2023-03-19T16:57:24;27.17;;;11.40;;
33190;SDS011;19554;42.652;23.364;2023-03-19T16:59:51;24.00;;;12.90;;